sensor_id;sensor_type;location;lat;lon;timestamp;pressure;altitude;pressure_sealevel;temperature;humidity
30339;BME280;795;49.296;11.348;2023-05-25T00:00:29;96725.53;;;8.46;100.00
30339;BME280;795;49.296;11.348;2023-05-25T00:02:57;96760.38;;;8.64;100.00
30339;BME280;795;49.296;11.348;2023-05-25T00:05:25;96749.81;;;8.62;100.00
30339;BME280;795;49.296;11.348;2023-05-25T00:07:54;96760.00;;;8.59;100.00
30339;BME280;795;49.296;11.348;2023-05-25T00:10:21;96756.56;;;8.66;100.00
30339;BME280;795;49.296;11.348;2023-05-25T00:12:50;96785.13;;;8.76;100.00
30339;BME280;795;49.296;11.348;2023-05-25T00:15:17;96764.72;;;8.65;100.00
30339;BME280;795;49.296;11.348;2023-05-25T00:17:44;96777.53;;;8.71;100.00
30339;BME280;795;49.296;11.348;2023-05-25T00:20:14;96756.31;;;8.60;100.00
30339;BME280;795;49.296;11.348;2023-05-25T00:22:43;96782.44;;;8.76;100.00
30339;BME280;795;49.296;11.348;2023-05-25T00:25:13;96757.31;;;8.59;100.00
30339;BME280;795;49.296;11.348;2023-05-25T00:27:40;96752.94;;;8.58;100.00
30339;BME280;795;49.296;11.348;2023-05-25T00:30:07;96733.63;;;8.37;100.00
30339;BME280;795;49.296;11.348;2023-05-25T00:32:34;96781.75;;;8.74;100.00
30339;BME280;795;49.296;11.348;2023-05-25T00:35:01;96778.44;;;8.62;100.00
30339;BME280;795;49.296;11.348;2023-05-25T00:37:28;96755.25;;;8.43;100.00
30339;BME280;795;49.296;11.348;2023-05-25T00:39:55;96761.69;;;8.50;100.00
30339;BME280;795;49.296;11.348;2023-05-25T00:42:23;96786.59;;;8.60;100.00
30339;BME280;795;49.296;11.348;2023-05-25T00:44:50;96781.84;;;8.54;100.00
30339;BME280;795;49.296;11.348;2023-05-25T00:47:17;96780.16;;;8.53;100.00
30339;BME280;795;49.296;11.348;2023-05-25T00:49:44;96748.13;;;8.25;100.00
30339;BME280;795;49.296;11.348;2023-05-25T00:52:13;96779.34;;;8.43;100.00
30339;BME280;795;49.296;11.348;2023-05-25T00:54:42;96742.13;;;8.13;100.00
30339;BME280;795;49.296;11.348;2023-05-25T00:57:14;96681.56;;;7.85;100.00
30339;BME280;795;49.296;11.348;2023-05-25T00:59:53;96726.38;;;8.10;100.00
30339;BME280;795;49.296;11.348;2023-05-25T01:02:24;96723.25;;;8.15;100.00
30339;BME280;795;49.296;11.348;2023-05-25T01:04:59;96747.44;;;8.32;100.00
30339;BME280;795;49.296;11.348;2023-05-25T01:07:31;96753.19;;;8.37;100.00
30339;BME280;795;49.296;11.348;2023-05-25T01:10:05;96768.34;;;8.46;100.00
30339;BME280;795;49.296;11.348;2023-05-25T01:12:37;96758.22;;;8.50;100.00
30339;BME280;795;49.296;11.348;2023-05-25T01:15:08;96710.56;;;8.26;100.00
30339;BME280;795;49.296;11.348;2023-05-25T01:17:35;96756.19;;;8.61;100.00
30339;BME280;795;49.296;11.348;2023-05-25T01:20:05;96763.59;;;8.67;100.00
30339;BME280;795;49.296;11.348;2023-05-25T01:23:13;96777.25;;;8.74;100.00
30339;BME280;795;49.296;11.348;2023-05-25T01:25:52;96713.19;;;8.36;100.00
30339;BME280;795;49.296;11.348;2023-05-25T01:28:34;96767.56;;;8.63;100.00
30339;BME280;795;49.296;11.348;2023-05-25T01:31:07;96781.63;;;8.65;100.00
30339;BME280;795;49.296;11.348;2023-05-25T01:33:36;96760.88;;;8.50;100.00
30339;BME280;795;49.296;11.348;2023-05-25T01:36:05;96754.44;;;8.33;100.00
30339;BME280;795;49.296;11.348;2023-05-25T01:38:33;96747.28;;;8.24;100.00
30339;BME280;795;49.296;11.348;2023-05-25T01:41:00;96692.09;;;7.96;100.00
30339;BME280;795;49.296;11.348;2023-05-25T01:43:27;96773.06;;;8.35;100.00
30339;BME280;795;49.296;11.348;2023-05-25T01:46:18;96770.50;;;8.24;100.00
30339;BME280;795;49.296;11.348;2023-05-25T01:52:18;96752.22;;;8.19;100.00
30339;BME280;795;49.296;11.348;2023-05-25T01:55:00;96760.84;;;8.13;100.00
30339;BME280;795;49.296;11.348;2023-05-25T01:57:49;96783.34;;;8.20;100.00
30339;BME280;795;49.296;11.348;2023-05-25T02:00:20;96747.81;;;7.91;100.00
30339;BME280;795;49.296;11.348;2023-05-25T02:02:51;96762.75;;;7.84;100.00
30339;BME280;795;49.296;11.348;2023-05-25T02:05:19;96770.56;;;8.04;100.00
30339;BME280;795;49.296;11.348;2023-05-25T02:07:47;96758.78;;;7.88;100.00
30339;BME280;795;49.296;11.348;2023-05-25T02:10:14;96741.91;;;7.78;100.00
30339;BME280;795;49.296;11.348;2023-05-25T02:12:41;96773.28;;;7.76;100.00
30339;BME280;795;49.296;11.348;2023-05-25T02:15:09;96751.63;;;7.79;100.00
30339;BME280;795;49.296;11.348;2023-05-25T02:17:37;96745.88;;;7.74;100.00
30339;BME280;795;49.296;11.348;2023-05-25T02:20:05;96781.03;;;7.79;100.00
30339;BME280;795;49.296;11.348;2023-05-25T02:22:34;96779.19;;;7.98;100.00
30339;BME280;795;49.296;11.348;2023-05-25T02:25:03;96753.44;;;7.88;100.00
30339;BME280;795;49.296;11.348;2023-05-25T02:27:30;96775.25;;;7.93;100.00
30339;BME280;795;49.296;11.348;2023-05-25T02:29:57;96754.31;;;7.79;100.00
30339;BME280;795;49.296;11.348;2023-05-25T02:32:24;96740.00;;;7.51;100.00
30339;BME280;795;49.296;11.348;2023-05-25T02:34:51;96738.88;;;7.44;100.00
30339;BME280;795;49.296;11.348;2023-05-25T02:37:18;96752.50;;;7.31;100.00
30339;BME280;795;49.296;11.348;2023-05-25T02:39:45;96779.63;;;7.36;100.00
30339;BME280;795;49.296;11.348;2023-05-25T02:42:12;96759.69;;;7.21;100.00
30339;BME280;795;49.296;11.348;2023-05-25T02:44:39;96787.66;;;7.36;100.00
30339;BME280;795;49.296;11.348;2023-05-25T02:47:06;96751.38;;;7.15;100.00
30339;BME280;795;49.296;11.348;2023-05-25T02:49:33;96793.41;;;7.42;100.00
30339;BME280;795;49.296;11.348;2023-05-25T02:52:00;96780.06;;;7.22;100.00
30339;BME280;795;49.296;11.348;2023-05-25T02:54:27;96785.56;;;7.30;100.00
30339;BME280;795;49.296;11.348;2023-05-25T02:56:54;96791.84;;;7.10;100.00
30339;BME280;795;49.296;11.348;2023-05-25T02:59:20;96760.06;;;6.88;100.00
30339;BME280;795;49.296;11.348;2023-05-25T03:01:47;96748.94;;;6.83;100.00
30339;BME280;795;49.296;11.348;2023-05-25T03:04:14;96765.56;;;6.96;100.00
30339;BME280;795;49.296;11.348;2023-05-25T03:06:41;96783.72;;;7.02;100.00
30339;BME280;795;49.296;11.348;2023-05-25T03:09:08;96782.72;;;7.03;100.00
30339;BME280;795;49.296;11.348;2023-05-25T03:11:36;96756.00;;;6.84;100.00
30339;BME280;795;49.296;11.348;2023-05-25T03:14:02;96773.84;;;6.93;100.00
30339;BME280;795;49.296;11.348;2023-05-25T03:16:29;96789.88;;;7.22;100.00
30339;BME280;795;49.296;11.348;2023-05-25T03:18:57;96790.19;;;7.19;100.00
30339;BME280;795;49.296;11.348;2023-05-25T03:21:24;96792.03;;;7.38;100.00
30339;BME280;795;49.296;11.348;2023-05-25T03:23:51;96695.88;;;6.80;100.00
30339;BME280;795;49.296;11.348;2023-05-25T03:26:18;96746.63;;;7.18;100.00
30339;BME280;795;49.296;11.348;2023-05-25T03:28:45;96793.72;;;7.48;100.00
30339;BME280;795;49.296;11.348;2023-05-25T03:31:12;96761.25;;;7.33;100.00
30339;BME280;795;49.296;11.348;2023-05-25T03:33:39;96810.56;;;7.68;100.00
30339;BME280;795;49.296;11.348;2023-05-25T03:36:10;96778.81;;;7.55;100.00
30339;BME280;795;49.296;11.348;2023-05-25T03:38:38;96778.50;;;7.58;100.00
30339;BME280;795;49.296;11.348;2023-05-25T03:41:05;96809.56;;;7.88;100.00
30339;BME280;795;49.296;11.348;2023-05-25T03:43:33;96795.94;;;7.81;100.00
30339;BME280;795;49.296;11.348;2023-05-25T03:46:00;96784.56;;;7.79;100.00
30339;BME280;795;49.296;11.348;2023-05-25T03:48:27;96811.53;;;7.95;100.00
30339;BME280;795;49.296;11.348;2023-05-25T03:50:54;96797.91;;;7.89;100.00
30339;BME280;795;49.296;11.348;2023-05-25T03:53:21;96757.13;;;7.68;100.00
30339;BME280;795;49.296;11.348;2023-05-25T03:55:48;96801.69;;;7.96;100.00
30339;BME280;795;49.296;11.348;2023-05-25T03:58:17;96788.06;;;7.89;100.00
30339;BME280;795;49.296;11.348;2023-05-25T04:00:44;96781.59;;;7.73;100.00
30339;BME280;795;49.296;11.348;2023-05-25T04:03:15;96810.16;;;7.82;100.00
30339;BME280;795;49.296;11.348;2023-05-25T04:05:42;96813.09;;;7.88;100.00
30339;BME280;795;49.296;11.348;2023-05-25T04:08:16;96781.47;;;7.65;100.00
30339;BME280;795;49.296;11.348;2023-05-25T04:10:46;96796.81;;;7.72;100.00
30339;BME280;795;49.296;11.348;2023-05-25T04:13:13;96769.94;;;7.64;100.00
30339;BME280;795;49.296;11.348;2023-05-25T04:15:40;96801.97;;;7.93;100.00
30339;BME280;795;49.296;11.348;2023-05-25T04:18:08;96764.84;;;7.80;100.00
30339;BME280;795;49.296;11.348;2023-05-25T04:20:35;96791.13;;;8.04;100.00
30339;BME280;795;49.296;11.348;2023-05-25T04:23:02;96811.16;;;8.46;100.00
30339;BME280;795;49.296;11.348;2023-05-25T04:25:29;96814.84;;;8.73;100.00
30339;BME280;795;49.296;11.348;2023-05-25T04:27:58;96839.88;;;9.08;100.00
30339;BME280;795;49.296;11.348;2023-05-25T04:30:25;96826.25;;;9.29;100.00
30339;BME280;795;49.296;11.348;2023-05-25T04:32:52;96810.72;;;9.50;100.00
30339;BME280;795;49.296;11.348;2023-05-25T04:35:20;96847.34;;;9.94;100.00
30339;BME280;795;49.296;11.348;2023-05-25T04:37:47;96831.63;;;9.99;100.00
30339;BME280;795;49.296;11.348;2023-05-25T04:40:14;96823.63;;;10.25;100.00
30339;BME280;795;49.296;11.348;2023-05-25T04:42:41;96828.66;;;10.46;100.00
30339;BME280;795;49.296;11.348;2023-05-25T04:45:09;96840.53;;;10.69;100.00
30339;BME280;795;49.296;11.348;2023-05-25T04:47:37;96799.50;;;10.59;100.00
30339;BME280;795;49.296;11.348;2023-05-25T04:50:09;96832.03;;;10.82;100.00
30339;BME280;795;49.296;11.348;2023-05-25T04:52:37;96831.59;;;10.94;100.00
30339;BME280;795;49.296;11.348;2023-05-25T04:55:04;96818.84;;;10.96;100.00
30339;BME280;795;49.296;11.348;2023-05-25T04:57:31;96854.06;;;11.27;100.00
30339;BME280;795;49.296;11.348;2023-05-25T04:59:58;96761.41;;;10.97;99.75
30339;BME280;795;49.296;11.348;2023-05-25T05:02:25;96828.63;;;11.55;99.21
30339;BME280;795;49.296;11.348;2023-05-25T05:04:52;96871.56;;;11.81;97.65
30339;BME280;795;49.296;11.348;2023-05-25T05:07:20;96840.63;;;11.77;94.91
30339;BME280;795;49.296;11.348;2023-05-25T05:09:48;96852.75;;;11.89;94.97
30339;BME280;795;49.296;11.348;2023-05-25T05:12:15;96880.38;;;12.39;93.06
30339;BME280;795;49.296;11.348;2023-05-25T05:14:42;96847.06;;;12.08;90.12
30339;BME280;795;49.296;11.348;2023-05-25T05:17:09;96866.56;;;12.18;90.39
30339;BME280;795;49.296;11.348;2023-05-25T05:19:36;96857.78;;;12.48;88.56
30339;BME280;795;49.296;11.348;2023-05-25T05:22:03;96856.44;;;12.60;87.20
30339;BME280;795;49.296;11.348;2023-05-25T05:24:30;96875.25;;;12.77;85.33
30339;BME280;795;49.296;11.348;2023-05-25T05:26:57;96883.00;;;12.96;84.40
30339;BME280;795;49.296;11.348;2023-05-25T05:29:25;96830.50;;;12.59;85.39
30339;BME280;795;49.296;11.348;2023-05-25T05:31:56;96892.41;;;12.92;85.17
30339;BME280;795;49.296;11.348;2023-05-25T05:34:24;96887.88;;;13.00;82.31
30339;BME280;795;49.296;11.348;2023-05-25T05:36:52;96854.69;;;12.92;84.71
30339;BME280;795;49.296;11.348;2023-05-25T05:39:25;96833.19;;;12.59;83.68
30339;BME280;795;49.296;11.348;2023-05-25T05:41:54;96883.53;;;12.83;84.07
30339;BME280;795;49.296;11.348;2023-05-25T05:44:21;96883.00;;;12.88;83.68
30339;BME280;795;49.296;11.348;2023-05-25T05:46:52;96895.25;;;12.98;85.64
30339;BME280;795;49.296;11.348;2023-05-25T05:49:27;96821.28;;;12.46;84.86
30339;BME280;795;49.296;11.348;2023-05-25T05:51:54;96869.38;;;12.73;85.48
30339;BME280;795;49.296;11.348;2023-05-25T05:54:21;96894.59;;;12.96;84.82
30339;BME280;795;49.296;11.348;2023-05-25T05:56:50;96861.63;;;12.70;83.56
30339;BME280;795;49.296;11.348;2023-05-25T05:59:17;96892.06;;;12.95;83.92
30339;BME280;795;49.296;11.348;2023-05-25T06:01:44;96874.19;;;13.02;83.69
30339;BME280;795;49.296;11.348;2023-05-25T06:04:11;96892.38;;;13.24;81.50
30339;BME280;795;49.296;11.348;2023-05-25T06:06:38;96871.97;;;13.21;81.15
30339;BME280;795;49.296;11.348;2023-05-25T06:09:08;96865.53;;;13.30;79.10
30339;BME280;795;49.296;11.348;2023-05-25T06:11:36;96884.06;;;13.72;77.44
30339;BME280;795;49.296;11.348;2023-05-25T06:14:05;96865.50;;;14.00;75.42
30339;BME280;795;49.296;11.348;2023-05-25T06:16:32;96886.06;;;14.54;72.81
30339;BME280;795;49.296;11.348;2023-05-25T06:18:59;96878.03;;;14.98;70.13
30339;BME280;795;49.296;11.348;2023-05-25T06:21:27;96869.41;;;15.47;66.60
30339;BME280;795;49.296;11.348;2023-05-25T06:23:54;96893.91;;;16.10;65.14
30339;BME280;795;49.296;11.348;2023-05-25T06:26:23;96875.50;;;16.41;62.08
30339;BME280;795;49.296;11.348;2023-05-25T06:28:50;96878.88;;;16.92;60.65
30339;BME280;795;49.296;11.348;2023-05-25T06:31:18;96857.75;;;17.15;59.37
30339;BME280;795;49.296;11.348;2023-05-25T06:33:45;96879.78;;;16.99;58.34
30339;BME280;795;49.296;11.348;2023-05-25T06:36:12;96886.72;;;16.81;59.27
30339;BME280;795;49.296;11.348;2023-05-25T06:38:41;96880.63;;;16.79;58.84
30339;BME280;795;49.296;11.348;2023-05-25T06:41:09;96884.56;;;16.97;58.70
30339;BME280;795;49.296;11.348;2023-05-25T06:43:38;96896.59;;;17.16;58.52
30339;BME280;795;49.296;11.348;2023-05-25T06:46:05;96892.88;;;16.68;58.45
30339;BME280;795;49.296;11.348;2023-05-25T06:48:32;96877.34;;;16.41;58.49
30339;BME280;795;49.296;11.348;2023-05-25T06:50:59;96875.97;;;16.66;59.09
30339;BME280;795;49.296;11.348;2023-05-25T06:53:26;96899.69;;;16.85;58.50
30339;BME280;795;49.296;11.348;2023-05-25T06:55:53;96904.22;;;17.06;57.96
30339;BME280;795;49.296;11.348;2023-05-25T06:58:20;96881.91;;;17.10;57.41
30339;BME280;795;49.296;11.348;2023-05-25T07:00:47;96902.09;;;17.57;55.87
30339;BME280;795;49.296;11.348;2023-05-25T07:03:14;96884.44;;;17.80;55.57
30339;BME280;795;49.296;11.348;2023-05-25T07:05:42;96891.91;;;17.65;54.75
30339;BME280;795;49.296;11.348;2023-05-25T07:08:09;96901.25;;;17.29;55.97
30339;BME280;795;49.296;11.348;2023-05-25T07:10:36;96856.22;;;17.34;55.14
30339;BME280;795;49.296;11.348;2023-05-25T07:13:03;96906.72;;;17.35;55.19
30339;BME280;795;49.296;11.348;2023-05-25T07:15:30;96908.84;;;17.40;55.70
30339;BME280;795;49.296;11.348;2023-05-25T07:17:57;96919.81;;;17.53;55.60
30339;BME280;795;49.296;11.348;2023-05-25T07:20:24;96857.81;;;17.56;54.68
30339;BME280;795;49.296;11.348;2023-05-25T07:22:51;96916.75;;;18.10;54.00
30339;BME280;795;49.296;11.348;2023-05-25T07:25:19;96857.16;;;18.02;53.62
30339;BME280;795;49.296;11.348;2023-05-25T07:27:48;96871.47;;;17.69;53.82
30339;BME280;795;49.296;11.348;2023-05-25T07:30:16;96915.81;;;18.43;53.31
30339;BME280;795;49.296;11.348;2023-05-25T07:32:42;96886.28;;;18.34;53.33
30339;BME280;795;49.296;11.348;2023-05-25T07:35:10;96927.44;;;19.04;51.26
30339;BME280;795;49.296;11.348;2023-05-25T07:37:36;96922.63;;;19.00;52.44
30339;BME280;795;49.296;11.348;2023-05-25T07:40:05;96865.91;;;19.03;51.04
30339;BME280;795;49.296;11.348;2023-05-25T07:42:32;96909.41;;;19.56;50.19
30339;BME280;795;49.296;11.348;2023-05-25T07:45:02;96930.38;;;19.49;50.24
30339;BME280;795;49.296;11.348;2023-05-25T07:47:29;96891.84;;;18.93;51.51
30339;BME280;795;49.296;11.348;2023-05-25T07:49:56;96930.16;;;19.50;50.51
30339;BME280;795;49.296;11.348;2023-05-25T07:52:23;96936.13;;;19.92;49.63
30339;BME280;795;49.296;11.348;2023-05-25T07:54:50;96888.94;;;19.91;48.34
30339;BME280;795;49.296;11.348;2023-05-25T07:57:17;96932.63;;;20.35;48.07
30339;BME280;795;49.296;11.348;2023-05-25T07:59:44;96836.38;;;19.84;48.47
30339;BME280;795;49.296;11.348;2023-05-25T08:03:37;96925.09;;;20.69;48.62
30339;BME280;795;49.296;11.348;2023-05-25T08:06:15;96859.78;;;19.47;48.66
30339;BME280;795;49.296;11.348;2023-05-25T08:08:42;96924.63;;;19.83;50.85
30339;BME280;795;49.296;11.348;2023-05-25T08:11:11;96930.16;;;19.57;50.11
30339;BME280;795;49.296;11.348;2023-05-25T08:13:38;96927.81;;;19.73;51.34
30339;BME280;795;49.296;11.348;2023-05-25T08:16:05;96879.44;;;19.56;50.33
30339;BME280;795;49.296;11.348;2023-05-25T08:18:32;96834.47;;;19.07;51.38
30339;BME280;795;49.296;11.348;2023-05-25T08:20:59;96824.88;;;18.85;51.57
30339;BME280;795;49.296;11.348;2023-05-25T08:23:26;96918.47;;;20.07;50.23
30339;BME280;795;49.296;11.348;2023-05-25T08:25:53;96926.75;;;19.74;50.43
30339;BME280;795;49.296;11.348;2023-05-25T08:28:21;96902.78;;;20.03;50.52
30339;BME280;795;49.296;11.348;2023-05-25T08:30:48;96906.56;;;20.46;49.31
30339;BME280;795;49.296;11.348;2023-05-25T08:33:17;96922.13;;;21.01;48.47
30339;BME280;795;49.296;11.348;2023-05-25T08:35:43;96903.19;;;20.50;49.74
30339;BME280;795;49.296;11.348;2023-05-25T08:38:11;96857.91;;;20.43;48.92
30339;BME280;795;49.296;11.348;2023-05-25T08:40:41;96842.53;;;21.04;47.27
30339;BME280;795;49.296;11.348;2023-05-25T08:43:09;96911.09;;;21.64;47.67
30339;BME280;795;49.296;11.348;2023-05-25T08:45:36;96898.19;;;21.71;46.03
30339;BME280;795;49.296;11.348;2023-05-25T08:48:20;96892.00;;;21.39;46.58
30339;BME280;795;49.296;11.348;2023-05-25T08:50:52;96876.25;;;21.77;46.01
30339;BME280;795;49.296;11.348;2023-05-25T08:53:21;96895.13;;;21.86;46.12
30339;BME280;795;49.296;11.348;2023-05-25T08:55:53;96859.56;;;22.33;44.71
30339;BME280;795;49.296;11.348;2023-05-25T08:58:38;96900.63;;;22.81;45.02
30339;BME280;795;49.296;11.348;2023-05-25T09:01:17;96914.63;;;23.15;43.54
30339;BME280;795;49.296;11.348;2023-05-25T09:03:47;96865.19;;;23.09;44.20
30339;BME280;795;49.296;11.348;2023-05-25T09:06:16;96904.53;;;22.74;44.36
30339;BME280;795;49.296;11.348;2023-05-25T09:08:44;96897.38;;;22.84;44.04
30339;BME280;795;49.296;11.348;2023-05-25T09:11:13;96875.81;;;23.18;42.93
30339;BME280;795;49.296;11.348;2023-05-25T09:13:48;96877.53;;;22.89;43.61
30339;BME280;795;49.296;11.348;2023-05-25T09:16:16;96944.59;;;23.97;41.36
30339;BME280;795;49.296;11.348;2023-05-25T09:18:43;96944.94;;;24.24;41.69
30339;BME280;795;49.296;11.348;2023-05-25T09:21:10;96887.72;;;23.81;41.54
30339;BME280;795;49.296;11.348;2023-05-25T09:23:38;96953.78;;;24.14;42.01
30339;BME280;795;49.296;11.348;2023-05-25T09:26:07;96950.69;;;23.76;42.53
30339;BME280;795;49.296;11.348;2023-05-25T09:28:34;96946.88;;;23.77;41.90
30339;BME280;795;49.296;11.348;2023-05-25T09:31:01;96937.44;;;24.08;42.85
30339;BME280;795;49.296;11.348;2023-05-25T09:33:29;96957.69;;;24.30;40.54
30339;BME280;795;49.296;11.348;2023-05-25T09:35:56;96927.66;;;24.00;40.54
30339;BME280;795;49.296;11.348;2023-05-25T09:38:24;96945.44;;;24.21;41.11
30339;BME280;795;49.296;11.348;2023-05-25T09:40:51;96949.56;;;24.35;40.56
30339;BME280;795;49.296;11.348;2023-05-25T09:43:18;96871.53;;;23.68;41.19
30339;BME280;795;49.296;11.348;2023-05-25T09:46:05;96955.13;;;24.52;40.75
30339;BME280;795;49.296;11.348;2023-05-25T09:48:32;96907.19;;;23.56;42.22
30339;BME280;795;49.296;11.348;2023-05-25T09:51:00;96954.84;;;23.67;41.73
30339;BME280;795;49.296;11.348;2023-05-25T09:53:28;96899.44;;;23.88;41.62
30339;BME280;795;49.296;11.348;2023-05-25T09:55:56;96910.34;;;24.91;39.31
30339;BME280;795;49.296;11.348;2023-05-25T09:58:22;96926.59;;;24.53;40.23
30339;BME280;795;49.296;11.348;2023-05-25T10:00:54;96900.41;;;25.35;39.14
30339;BME280;795;49.296;11.348;2023-05-25T10:03:21;96895.63;;;24.97;39.56
30339;BME280;795;49.296;11.348;2023-05-25T10:05:51;96955.19;;;25.53;38.99
30339;BME280;795;49.296;11.348;2023-05-25T10:08:21;96957.72;;;25.26;39.91
30339;BME280;795;49.296;11.348;2023-05-25T10:10:52;96922.56;;;25.12;39.40
30339;BME280;795;49.296;11.348;2023-05-25T10:13:21;96954.00;;;25.49;37.92
30339;BME280;795;49.296;11.348;2023-05-25T10:15:52;96956.19;;;26.02;37.63
30339;BME280;795;49.296;11.348;2023-05-25T10:18:27;96963.97;;;26.43;37.19
30339;BME280;795;49.296;11.348;2023-05-25T10:21:03;96958.84;;;26.30;36.82
30339;BME280;795;49.296;11.348;2023-05-25T10:23:44;96943.84;;;27.66;35.49
30339;BME280;795;49.296;11.348;2023-05-25T10:26:18;96949.50;;;27.86;34.18
30339;BME280;795;49.296;11.348;2023-05-25T10:28:55;96942.47;;;27.69;34.23
30339;BME280;795;49.296;11.348;2023-05-25T10:31:22;96940.50;;;27.64;34.49
30339;BME280;795;49.296;11.348;2023-05-25T10:33:55;96971.41;;;26.64;36.71
30339;BME280;795;49.296;11.348;2023-05-25T10:36:26;96943.44;;;25.29;37.38
30339;BME280;795;49.296;11.348;2023-05-25T10:38:54;96961.66;;;23.88;39.24
30339;BME280;795;49.296;11.348;2023-05-25T10:41:21;96959.97;;;24.61;38.93
30339;BME280;795;49.296;11.348;2023-05-25T10:43:49;96969.75;;;25.09;37.68
30339;BME280;795;49.296;11.348;2023-05-25T10:46:17;96970.41;;;25.94;37.58
30339;BME280;795;49.296;11.348;2023-05-25T10:48:48;96900.13;;;25.86;36.05
30339;BME280;795;49.296;11.348;2023-05-25T10:51:19;96966.84;;;27.23;35.13
30339;BME280;795;49.296;11.348;2023-05-25T10:53:58;96957.00;;;27.59;35.03
30339;BME280;795;49.296;11.348;2023-05-25T10:56:26;96945.47;;;26.39;36.17
30339;BME280;795;49.296;11.348;2023-05-25T10:58:53;96925.34;;;26.38;35.95
30339;BME280;795;49.296;11.348;2023-05-25T11:01:21;96915.09;;;26.33;35.15
30339;BME280;795;49.296;11.348;2023-05-25T11:04:17;96946.66;;;25.71;36.45
30339;BME280;795;49.296;11.348;2023-05-25T11:09:29;96948.44;;;27.29;34.80
30339;BME280;795;49.296;11.348;2023-05-25T11:12:02;96899.34;;;27.26;34.42
30339;BME280;795;49.296;11.348;2023-05-25T11:14:32;96953.09;;;28.23;33.17
30339;BME280;795;49.296;11.348;2023-05-25T11:17:17;96917.75;;;26.93;34.35
30339;BME280;795;49.296;11.348;2023-05-25T11:19:52;96954.34;;;27.69;34.22
30339;BME280;795;49.296;11.348;2023-05-25T11:22:30;96946.09;;;27.16;34.19
30339;BME280;795;49.296;11.348;2023-05-25T11:25:00;96949.41;;;27.13;34.32
30339;BME280;795;49.296;11.348;2023-05-25T11:27:30;96921.34;;;27.47;33.82
30339;BME280;795;49.296;11.348;2023-05-25T11:29:59;96943.59;;;28.04;33.59
30339;BME280;795;49.296;11.348;2023-05-25T11:32:27;96921.66;;;27.51;33.90
30339;BME280;795;49.296;11.348;2023-05-25T11:34:56;96950.75;;;28.05;32.75
30339;BME280;795;49.296;11.348;2023-05-25T11:37:26;96910.28;;;27.79;33.41
30339;BME280;795;49.296;11.348;2023-05-25T11:39:57;96939.28;;;28.75;31.18
30339;BME280;795;49.296;11.348;2023-05-25T11:42:25;96915.16;;;28.61;31.16
30339;BME280;795;49.296;11.348;2023-05-25T11:44:52;96939.72;;;29.34;31.33
30339;BME280;795;49.296;11.348;2023-05-25T11:47:22;96955.41;;;28.99;30.67
30339;BME280;795;49.296;11.348;2023-05-25T11:49:54;96945.69;;;28.34;32.87
30339;BME280;795;49.296;11.348;2023-05-25T11:52:21;96923.06;;;28.37;32.54
30339;BME280;795;49.296;11.348;2023-05-25T11:54:48;96946.56;;;28.45;31.95
30339;BME280;795;49.296;11.348;2023-05-25T11:57:23;96944.03;;;27.91;31.73
30339;BME280;795;49.296;11.348;2023-05-25T11:59:53;96947.41;;;28.45;31.75
30339;BME280;795;49.296;11.348;2023-05-25T12:02:23;96905.38;;;28.33;31.91
30339;BME280;795;49.296;11.348;2023-05-25T12:04:59;96940.94;;;27.83;32.68
30339;BME280;795;49.296;11.348;2023-05-25T12:07:30;96944.81;;;28.23;32.45
30339;BME280;795;49.296;11.348;2023-05-25T12:10:14;96930.03;;;29.27;30.91
30339;BME280;795;49.296;11.348;2023-05-25T12:12:50;96911.78;;;29.56;30.98
30339;BME280;795;49.296;11.348;2023-05-25T12:15:22;96884.94;;;29.26;30.76
30339;BME280;795;49.296;11.348;2023-05-25T12:17:51;96927.75;;;27.90;31.71
30339;BME280;795;49.296;11.348;2023-05-25T12:20:20;96879.84;;;28.11;32.93
30339;BME280;795;49.296;11.348;2023-05-25T12:22:48;96921.97;;;30.16;30.49
30339;BME280;795;49.296;11.348;2023-05-25T12:25:19;96935.88;;;29.91;30.63
30339;BME280;795;49.296;11.348;2023-05-25T12:27:48;96932.25;;;28.53;30.79
30339;BME280;795;49.296;11.348;2023-05-25T12:30:14;96924.78;;;29.50;30.08
30339;BME280;795;49.296;11.348;2023-05-25T12:33:00;96886.56;;;30.13;30.17
30339;BME280;795;49.296;11.348;2023-05-25T12:35:46;96834.50;;;30.10;29.20
30339;BME280;795;49.296;11.348;2023-05-25T12:38:19;96921.53;;;30.78;28.41
30339;BME280;795;49.296;11.348;2023-05-25T12:41:04;96889.09;;;29.74;30.66
30339;BME280;795;49.296;11.348;2023-05-25T12:43:39;96910.56;;;30.48;29.55
30339;BME280;795;49.296;11.348;2023-05-25T12:46:08;96897.09;;;31.29;28.34
30339;BME280;795;49.296;11.348;2023-05-25T12:48:35;96923.09;;;30.99;28.11
30339;BME280;795;49.296;11.348;2023-05-25T12:51:03;96918.03;;;32.18;26.79
30339;BME280;795;49.296;11.348;2023-05-25T12:53:30;96925.06;;;30.94;28.46
30339;BME280;795;49.296;11.348;2023-05-25T12:56:02;96913.38;;;31.79;27.01
30339;BME280;795;49.296;11.348;2023-05-25T12:58:29;96877.38;;;31.30;27.05
30339;BME280;795;49.296;11.348;2023-05-25T13:00:56;96896.31;;;29.40;29.76
30339;BME280;795;49.296;11.348;2023-05-25T13:03:23;96904.88;;;29.89;29.00
30339;BME280;795;49.296;11.348;2023-05-25T13:05:58;96824.53;;;30.04;28.37
30339;BME280;795;49.296;11.348;2023-05-25T13:08:26;96879.91;;;28.93;30.38
30339;BME280;795;49.296;11.348;2023-05-25T13:10:54;96907.84;;;28.97;29.67
30339;BME280;795;49.296;11.348;2023-05-25T13:13:21;96905.88;;;30.28;29.16
30339;BME280;795;49.296;11.348;2023-05-25T13:15:48;96832.06;;;28.87;29.77
30339;BME280;795;49.296;11.348;2023-05-25T13:18:15;96920.66;;;29.38;30.59
30339;BME280;795;49.296;11.348;2023-05-25T13:20:42;96840.53;;;31.25;26.99
30339;BME280;795;49.296;11.348;2023-05-25T13:23:11;96905.97;;;31.31;27.98
30339;BME280;795;49.296;11.348;2023-05-25T13:25:38;96894.94;;;31.88;27.73
30339;BME280;795;49.296;11.348;2023-05-25T13:28:05;96864.16;;;32.37;26.26